KLM312 LIPE-LFOB
Flight info
| Callsign | KLM312 |
|---|---|
| Flight time | 1h 42m |
| Altitude | 18000 |
| Route | LUPOS L995 MISPO/N0458F380 DCT CERVI DCT MOLUS DCT UNKIR DCT GIVRI DCT TINIL |
| Aircraft | B737/M-SDE2E3FGHIRWXY/LB1 |
Departure
| Time | 2026-04-22 08:10 |
|---|---|
| Airport | Bologna Guglielmo Marconi Airport (LIPE) |
Arrival
| Time | 2026-04-22 09:52 |
|---|---|
| Airport | Beauvais-Tillé airport (LFOB) |
| Time | Latitude | Longitude | Altitude | Speed | Heading |
|---|---|---|---|---|---|
| 2026-04-22 07:38 | 44.52979 | 11.29154 | 131 ft | 0 kts | 117° |
| 2026-04-22 07:59 | 44.52980 | 11.29154 | 131 ft | 1 kts | 117° |
| 2026-04-22 08:00 | 44.52990 | 11.29124 | 131 ft | 4 kts | 111° |
| 2026-04-22 08:00 | 44.52997 | 11.29088 | 132 ft | 4 kts | 90° |
| 2026-04-22 08:00 | 44.52991 | 11.29059 | 132 ft | 3 kts | 29° |
| 2026-04-22 08:00 | 44.52989 | 11.29057 | 132 ft | 0 kts | 26° |
| 2026-04-22 08:03 | 44.52989 | 11.29058 | 132 ft | 0 kts | 27° |
| 2026-04-22 08:03 | 44.52996 | 11.29063 | 132 ft | 3 kts | 26° |
| 2026-04-22 08:03 | 44.53020 | 11.29079 | 132 ft | 5 kts | 26° |
| 2026-04-22 08:04 | 44.53055 | 11.29103 | 132 ft | 6 kts | 27° |
| 2026-04-22 08:04 | 44.53100 | 11.29137 | 133 ft | 8 kts | 27° |
| 2026-04-22 08:04 | 44.53151 | 11.29172 | 134 ft | 8 kts | 26° |
| 2026-04-22 08:04 | 44.53201 | 11.29206 | 135 ft | 8 kts | 17° |
| 2026-04-22 08:05 | 44.53241 | 11.29161 | 135 ft | 9 kts | 298° |
| 2026-04-22 08:05 | 44.53278 | 11.29060 | 132 ft | 15 kts | 296° |
| 2026-04-22 08:05 | 44.53333 | 11.28906 | 130 ft | 20 kts | 297° |
| 2026-04-22 08:05 | 44.53403 | 11.28712 | 126 ft | 24 kts | 297° |
| 2026-04-22 08:06 | 44.53475 | 11.28512 | 126 ft | 23 kts | 296° |
| 2026-04-22 08:06 | 44.53545 | 11.28319 | 126 ft | 22 kts | 297° |
| 2026-04-22 08:06 | 44.53613 | 11.28131 | 127 ft | 21 kts | 297° |
| 2026-04-22 08:06 | 44.53678 | 11.27949 | 127 ft | 21 kts | 296° |
| 2026-04-22 08:07 | 44.53742 | 11.27771 | 121 ft | 20 kts | 296° |
| 2026-04-22 08:07 | 44.53792 | 11.27634 | 125 ft | 11 kts | 296° |
| 2026-04-22 08:07 | 44.53817 | 11.27590 | 125 ft | 4 kts | 324° |
| 2026-04-22 08:07 | 44.53851 | 11.27574 | 124 ft | 7 kts | 349° |
| 2026-04-22 08:08 | 44.53906 | 11.27580 | 124 ft | 9 kts | 21° |
| 2026-04-22 08:08 | 44.53948 | 11.27645 | 121 ft | 9 kts | 69° |
| 2026-04-22 08:08 | 44.53953 | 11.27730 | 124 ft | 9 kts | 104° |
| 2026-04-22 08:08 | 44.53944 | 11.27759 | 126 ft | 0 kts | 118° |
| 2026-04-22 08:09 | 44.53919 | 11.27825 | 124 ft | 25 kts | 116° |
| 2026-04-22 08:09 | 44.53724 | 11.28371 | 134 ft | 98 kts | 117° |
| 2026-04-22 08:09 | 44.53326 | 11.29491 | 151 ft | 154 kts | 115° |
| 2026-04-22 08:09 | 44.52803 | 11.30920 | 646 ft | 167 kts | 116° |
| 2026-04-22 08:10 | 44.52420 | 11.32430 | 1517 ft | 162 kts | 93° |
| 2026-04-22 08:10 | 44.52670 | 11.33977 | 2164 ft | 177 kts | 62° |
| 2026-04-22 08:10 | 44.53195 | 11.34993 | 2118 ft | 212 kts | 45° |
| 2026-04-22 08:10 | 44.54556 | 11.35829 | 2853 ft | 218 kts | 9° |
| 2026-04-22 08:11 | 44.56007 | 11.36130 | 3930 ft | 206 kts | 16° |
| 2026-04-22 08:11 | 44.57387 | 11.36670 | 4754 ft | 206 kts | 22° |
| 2026-04-22 08:11 | 44.58721 | 11.37413 | 5530 ft | 207 kts | 26° |
| 2026-04-22 08:11 | 44.59993 | 11.38265 | 6317 ft | 208 kts | 29° |
| 2026-04-22 08:12 | 44.61278 | 11.39219 | 7120 ft | 209 kts | 30° |
| 2026-04-22 08:12 | 44.62557 | 11.40210 | 7897 ft | 212 kts | 29° |
| 2026-04-22 08:12 | 44.63858 | 11.41241 | 8653 ft | 218 kts | 29° |
| 2026-04-22 08:12 | 44.65231 | 11.42196 | 9364 ft | 228 kts | 14° |
| 2026-04-22 08:13 | 44.66871 | 11.42151 | 9761 ft | 248 kts | 341° |
| 2026-04-22 08:13 | 44.68312 | 11.40819 | 10540 ft | 254 kts | 311° |
| 2026-04-22 08:13 | 44.69102 | 11.38586 | 11342 ft | 262 kts | 282° |
| 2026-04-22 08:13 | 44.68973 | 11.36040 | 12245 ft | 268 kts | 251° |
| 2026-04-22 08:14 | 44.67903 | 11.33876 | 13169 ft | 276 kts | 225° |
| 2026-04-22 08:14 | 44.66406 | 11.32153 | 14033 ft | 281 kts | 222° |
| 2026-04-22 08:14 | 44.64873 | 11.30416 | 14819 ft | 285 kts | 224° |
| 2026-04-22 08:14 | 44.63345 | 11.28633 | 15693 ft | 286 kts | 226° |
| 2026-04-22 08:15 | 44.61817 | 11.26833 | 16511 ft | 291 kts | 226° |
| 2026-04-22 08:15 | 44.60159 | 11.25013 | 16825 ft | 316 kts | 225° |
| 2026-04-22 08:15 | 44.58342 | 11.23072 | 17023 ft | 341 kts | 224° |
| 2026-04-22 08:15 | 44.56388 | 11.20982 | 17214 ft | 365 kts | 224° |
| 2026-04-22 08:16 | 44.54448 | 11.18582 | 17348 ft | 378 kts | 238° |
| 2026-04-22 08:16 | 44.53235 | 11.15331 | 17636 ft | 379 kts | 258° |
| 2026-04-22 08:16 | 44.52836 | 11.11720 | 18144 ft | 374 kts | 270° |
| 2026-04-22 08:16 | 44.52683 | 11.08071 | 18122 ft | 374 kts | 272° |
| 2026-04-22 08:17 | 44.52565 | 11.04439 | 18136 ft | 373 kts | 272° |
| 2026-04-22 08:17 | 44.52442 | 11.00856 | 18132 ft | 373 kts | 271° |
| 2026-04-22 08:17 | 44.52301 | 10.97244 | 18138 ft | 373 kts | 271° |
| 2026-04-22 08:17 | 44.52145 | 10.93615 | 18132 ft | 373 kts | 271° |
| 2026-04-22 08:18 | 44.51981 | 10.90004 | 18135 ft | 373 kts | 271° |
| 2026-04-22 08:18 | 44.51813 | 10.86365 | 18136 ft | 374 kts | 271° |
| 2026-04-22 08:18 | 44.51645 | 10.82721 | 18137 ft | 374 kts | 271° |
| 2026-04-22 08:18 | 44.51479 | 10.79093 | 18139 ft | 374 kts | 271° |
| 2026-04-22 08:19 | 44.51313 | 10.75452 | 18140 ft | 374 kts | 271° |
| 2026-04-22 08:19 | 44.51145 | 10.71818 | 18129 ft | 374 kts | 271° |
| 2026-04-22 08:19 | 44.50975 | 10.68171 | 18135 ft | 374 kts | 271° |
| 2026-04-22 08:19 | 44.50828 | 10.64542 | 18134 ft | 372 kts | 275° |
| 2026-04-22 08:20 | 44.51264 | 10.61021 | 18148 ft | 365 kts | 292° |
| 2026-04-22 08:20 | 44.52387 | 10.57865 | 18114 ft | 363 kts | 303° |
| 2026-04-22 08:20 | 44.53967 | 10.55132 | 18135 ft | 360 kts | 316° |
| 2026-04-22 08:20 | 44.55980 | 10.53039 | 18152 ft | 361 kts | 325° |
| 2026-04-22 08:21 | 44.58110 | 10.51177 | 18124 ft | 360 kts | 326° |
| 2026-04-22 08:21 | 44.60228 | 10.49328 | 18126 ft | 359 kts | 325° |
| 2026-04-22 08:21 | 44.62338 | 10.47456 | 18135 ft | 358 kts | 324° |
| 2026-04-22 08:21 | 44.64439 | 10.45555 | 18146 ft | 358 kts | 324° |
| 2026-04-22 08:22 | 44.66516 | 10.43651 | 18141 ft | 359 kts | 324° |
| 2026-04-22 08:22 | 44.68606 | 10.41729 | 18139 ft | 359 kts | 324° |
| 2026-04-22 08:22 | 44.70705 | 10.39799 | 18139 ft | 359 kts | 324° |
| 2026-04-22 08:22 | 44.72792 | 10.37884 | 18156 ft | 360 kts | 324° |
| 2026-04-22 08:23 | 44.74900 | 10.35962 | 18149 ft | 363 kts | 324° |
| 2026-04-22 08:23 | 44.77027 | 10.34025 | 18150 ft | 365 kts | 324° |
| 2026-04-22 08:23 | 44.79164 | 10.32076 | 18147 ft | 367 kts | 324° |
| 2026-04-22 08:23 | 44.81316 | 10.30111 | 18143 ft | 368 kts | 324° |
| 2026-04-22 08:24 | 44.83429 | 10.28093 | 18152 ft | 367 kts | 322° |
| 2026-04-22 08:24 | 44.85477 | 10.25972 | 18148 ft | 364 kts | 321° |
| 2026-04-22 08:24 | 44.87500 | 10.23824 | 18151 ft | 361 kts | 321° |
| 2026-04-22 08:24 | 44.89504 | 10.21693 | 18153 ft | 360 kts | 321° |
| 2026-04-22 08:25 | 44.91502 | 10.19575 | 18155 ft | 359 kts | 321° |
| 2026-04-22 08:25 | 44.93495 | 10.17473 | 18176 ft | 359 kts | 321° |
| 2026-04-22 08:25 | 44.95526 | 10.15336 | 18168 ft | 367 kts | 321° |
| 2026-04-22 08:25 | 44.97574 | 10.13183 | 18157 ft | 368 kts | 321° |
| 2026-04-22 08:26 | 44.99632 | 10.11018 | 18149 ft | 367 kts | 321° |
| 2026-04-22 08:26 | 45.01528 | 10.08633 | 18147 ft | 365 kts | 313° |
| 2026-04-22 08:26 | 45.03167 | 10.05889 | 18267 ft | 369 kts | 306° |
| 2026-04-22 08:26 | 45.04535 | 10.02794 | 18916 ft | 371 kts | 300° |
| 2026-04-22 08:27 | 45.05774 | 9.99619 | 19776 ft | 366 kts | 299° |
| 2026-04-22 08:27 | 45.06976 | 9.96493 | 20725 ft | 361 kts | 299° |
| 2026-04-22 08:27 | 45.08174 | 9.93368 | 21454 ft | 361 kts | 299° |
| 2026-04-22 08:27 | 45.09380 | 9.90229 | 22072 ft | 364 kts | 299° |
| 2026-04-22 08:28 | 45.10594 | 9.87073 | 22671 ft | 366 kts | 299° |
| 2026-04-22 08:28 | 45.11819 | 9.83896 | 23311 ft | 367 kts | 299° |
| 2026-04-22 08:28 | 45.13040 | 9.80732 | 23884 ft | 369 kts | 299° |
| 2026-04-22 08:28 | 45.14276 | 9.77529 | 24362 ft | 370 kts | 299° |
| 2026-04-22 08:29 | 45.15515 | 9.74317 | 24788 ft | 373 kts | 299° |
| 2026-04-22 08:29 | 45.16760 | 9.71086 | 25263 ft | 376 kts | 300° |
| 2026-04-22 08:29 | 45.18003 | 9.67857 | 25737 ft | 376 kts | 300° |
| 2026-04-22 08:29 | 45.19258 | 9.64594 | 26132 ft | 378 kts | 300° |
| 2026-04-22 08:30 | 45.20521 | 9.61308 | 26472 ft | 382 kts | 300° |
| 2026-04-22 08:30 | 45.21794 | 9.57992 | 26816 ft | 385 kts | 300° |
| 2026-04-22 08:30 | 45.23073 | 9.54658 | 27206 ft | 386 kts | 300° |
| 2026-04-22 08:30 | 45.24361 | 9.51293 | 27569 ft | 388 kts | 300° |
| 2026-04-22 08:31 | 45.25670 | 9.47870 | 27916 ft | 390 kts | 300° |
| 2026-04-22 08:31 | 45.26965 | 9.44478 | 28266 ft | 391 kts | 300° |
| 2026-04-22 08:31 | 45.29520 | 9.37773 | 29302 ft | 386 kts | 301° |
| 2026-04-22 08:32 | 45.30789 | 9.34436 | 29861 ft | 385 kts | 301° |
| 2026-04-22 08:32 | 45.32062 | 9.31085 | 30278 ft | 384 kts | 301° |
| 2026-04-22 08:32 | 45.33328 | 9.27750 | 30662 ft | 384 kts | 301° |
| 2026-04-22 08:32 | 45.34586 | 9.24431 | 31044 ft | 383 kts | 301° |
| 2026-04-22 08:33 | 45.35846 | 9.21101 | 31478 ft | 381 kts | 300° |
| 2026-04-22 08:33 | 45.37098 | 9.17790 | 31919 ft | 379 kts | 300° |
| 2026-04-22 08:33 | 45.38343 | 9.14495 | 32329 ft | 377 kts | 300° |
| 2026-04-22 08:33 | 45.39579 | 9.11220 | 32685 ft | 376 kts | 300° |
| 2026-04-22 08:34 | 45.40820 | 9.07928 | 33083 ft | 375 kts | 300° |
| 2026-04-22 08:34 | 45.42044 | 9.04675 | 33507 ft | 374 kts | 300° |
| 2026-04-22 08:34 | 45.43271 | 9.01410 | 33816 ft | 374 kts | 300° |
| 2026-04-22 08:34 | 45.44501 | 8.98135 | 34139 ft | 373 kts | 300° |
| 2026-04-22 08:35 | 45.45722 | 8.94880 | 34420 ft | 373 kts | 300° |
| 2026-04-22 08:35 | 45.46945 | 8.91616 | 34568 ft | 376 kts | 300° |
| 2026-04-22 08:35 | 45.48186 | 8.88303 | 34706 ft | 379 kts | 300° |
| 2026-04-22 08:35 | 45.49421 | 8.85000 | 34929 ft | 379 kts | 300° |
| 2026-04-22 08:36 | 45.50663 | 8.81672 | 35124 ft | 381 kts | 300° |
| 2026-04-22 08:36 | 45.51912 | 8.78320 | 35285 ft | 383 kts | 300° |
| 2026-04-22 08:36 | 45.53166 | 8.74953 | 35479 ft | 384 kts | 300° |
| 2026-04-22 08:36 | 45.54418 | 8.71586 | 35659 ft | 386 kts | 300° |
| 2026-04-22 08:37 | 45.55676 | 8.68196 | 35827 ft | 387 kts | 300° |
| 2026-04-22 08:37 | 45.56938 | 8.64793 | 36004 ft | 389 kts | 300° |
| 2026-04-22 08:37 | 45.58207 | 8.61370 | 36173 ft | 391 kts | 300° |
| 2026-04-22 08:37 | 45.59473 | 8.57949 | 36310 ft | 392 kts | 300° |
| 2026-04-22 08:38 | 45.60751 | 8.54492 | 36478 ft | 393 kts | 300° |
| 2026-04-22 08:38 | 45.62030 | 8.51025 | 36644 ft | 395 kts | 300° |
| 2026-04-22 08:38 | 45.63310 | 8.47553 | 36818 ft | 396 kts | 300° |
| 2026-04-22 08:38 | 45.64596 | 8.44060 | 36961 ft | 397 kts | 300° |
| 2026-04-22 08:39 | 45.65886 | 8.40551 | 37134 ft | 399 kts | 300° |
| 2026-04-22 08:39 | 45.67176 | 8.37040 | 37250 ft | 401 kts | 300° |
| 2026-04-22 08:39 | 45.68475 | 8.33496 | 37340 ft | 404 kts | 300° |
| 2026-04-22 08:39 | 45.69776 | 8.29943 | 37503 ft | 404 kts | 300° |
| 2026-04-22 08:40 | 45.71081 | 8.26373 | 37679 ft | 405 kts | 300° |
| 2026-04-22 08:40 | 45.73712 | 8.19166 | 37798 ft | 411 kts | 300° |
| 2026-04-22 08:40 | 45.75018 | 8.15581 | 38016 ft | 412 kts | 300° |
| 2026-04-22 08:41 | 45.76353 | 8.11911 | 38160 ft | 413 kts | 300° |
| 2026-04-22 08:41 | 45.79009 | 8.04596 | 38156 ft | 416 kts | 300° |
| 2026-04-22 08:42 | 45.81656 | 7.97283 | 38162 ft | 413 kts | 300° |
| 2026-04-22 08:42 | 45.84293 | 7.89975 | 38165 ft | 411 kts | 300° |
| 2026-04-22 08:43 | 45.86915 | 7.82692 | 38142 ft | 410 kts | 300° |
| 2026-04-22 08:43 | 45.89523 | 7.75438 | 38163 ft | 409 kts | 300° |
| 2026-04-22 08:44 | 45.92121 | 7.68183 | 38145 ft | 409 kts | 300° |
| 2026-04-22 08:44 | 45.94725 | 7.60893 | 38130 ft | 410 kts | 300° |
| 2026-04-22 08:45 | 45.97432 | 7.53705 | 38105 ft | 408 kts | 306° |
| 2026-04-22 08:45 | 46.00899 | 7.47349 | 38116 ft | 407 kts | 310° |
| 2026-04-22 08:46 | 46.04480 | 7.40973 | 38116 ft | 407 kts | 310° |
| 2026-04-22 08:46 | 46.08017 | 7.34612 | 38124 ft | 407 kts | 310° |
| 2026-04-22 08:47 | 46.11554 | 7.28207 | 38124 ft | 409 kts | 310° |
| 2026-04-22 08:47 | 46.15089 | 7.21779 | 38143 ft | 409 kts | 310° |
| 2026-04-22 08:48 | 46.18623 | 7.15336 | 38117 ft | 408 kts | 309° |
| 2026-04-22 08:48 | 46.22136 | 7.08916 | 38119 ft | 406 kts | 309° |
| 2026-04-22 08:49 | 46.25628 | 7.02527 | 38104 ft | 406 kts | 309° |
| 2026-04-22 08:49 | 46.29114 | 6.96129 | 38076 ft | 405 kts | 309° |
| 2026-04-22 08:50 | 46.32597 | 6.89720 | 38077 ft | 404 kts | 309° |
| 2026-04-22 08:50 | 46.36075 | 6.83312 | 38079 ft | 404 kts | 309° |
| 2026-04-22 08:51 | 46.39545 | 6.76902 | 38080 ft | 404 kts | 309° |
| 2026-04-22 08:51 | 46.43000 | 6.70501 | 38099 ft | 405 kts | 309° |
| 2026-04-22 08:52 | 46.46131 | 6.63716 | 38120 ft | 405 kts | 302° |
| 2026-04-22 08:52 | 46.48919 | 6.56613 | 38125 ft | 406 kts | 302° |
| 2026-04-22 08:53 | 46.51710 | 6.49487 | 38120 ft | 406 kts | 302° |
| 2026-04-22 08:53 | 46.54512 | 6.42360 | 38119 ft | 405 kts | 301° |
| 2026-04-22 08:54 | 46.57303 | 6.35257 | 38125 ft | 405 kts | 301° |
| 2026-04-22 08:54 | 46.60105 | 6.28119 | 38122 ft | 406 kts | 301° |
| 2026-04-22 08:55 | 46.62896 | 6.20990 | 38097 ft | 406 kts | 301° |
| 2026-04-22 08:55 | 46.65209 | 6.15066 | 38088 ft | 405 kts | 301° |
| 2026-04-22 08:56 | 46.67995 | 6.07914 | 38074 ft | 406 kts | 301° |
| 2026-04-22 08:56 | 46.70768 | 6.00772 | 38084 ft | 405 kts | 301° |
| 2026-04-22 08:57 | 46.73525 | 5.93655 | 38084 ft | 405 kts | 301° |
| 2026-04-22 08:57 | 46.76286 | 5.86511 | 38081 ft | 405 kts | 301° |
| 2026-04-22 08:58 | 46.79039 | 5.79371 | 38080 ft | 404 kts | 301° |
| 2026-04-22 08:58 | 46.82547 | 5.72998 | 38099 ft | 403 kts | 316° |
| 2026-04-22 08:59 | 46.87039 | 5.68187 | 38098 ft | 405 kts | 328° |
| 2026-04-22 08:59 | 46.92024 | 5.64212 | 38094 ft | 406 kts | 329° |
| 2026-04-22 09:00 | 46.96999 | 5.60292 | 38096 ft | 406 kts | 329° |
| 2026-04-22 09:00 | 47.01957 | 5.56326 | 38103 ft | 406 kts | 329° |
| 2026-04-22 09:01 | 47.06902 | 5.52333 | 38112 ft | 408 kts | 329° |
| 2026-04-22 09:01 | 47.11843 | 5.48330 | 38119 ft | 409 kts | 329° |
| 2026-04-22 09:02 | 47.16887 | 5.44235 | 38116 ft | 410 kts | 329° |
| 2026-04-22 09:02 | 47.21881 | 5.40173 | 38127 ft | 410 kts | 329° |
| 2026-04-22 09:03 | 47.26872 | 5.36104 | 38140 ft | 410 kts | 329° |
| 2026-04-22 09:03 | 47.31837 | 5.32052 | 38129 ft | 411 kts | 329° |
| 2026-04-22 09:04 | 47.36856 | 5.27964 | 37725 ft | 417 kts | 329° |
| 2026-04-22 09:04 | 47.39406 | 5.25886 | 37270 ft | 409 kts | 329° |
| 2026-04-22 09:04 | 47.41898 | 5.23854 | 36483 ft | 408 kts | 328° |
| 2026-04-22 09:04 | 47.44338 | 5.21860 | 35768 ft | 405 kts | 328° |
| 2026-04-22 09:05 | 47.46690 | 5.19934 | 35040 ft | 404 kts | 327° |
| 2026-04-22 09:05 | 47.49136 | 5.17930 | 34285 ft | 402 kts | 327° |
| 2026-04-22 09:05 | 47.51571 | 5.15930 | 33441 ft | 399 kts | 327° |
| 2026-04-22 09:05 | 47.53994 | 5.13940 | 32454 ft | 399 kts | 327° |
| 2026-04-22 09:06 | 47.56422 | 5.11942 | 31554 ft | 398 kts | 327° |
| 2026-04-22 09:06 | 47.58826 | 5.09936 | 30721 ft | 395 kts | 325° |
| 2026-04-22 09:06 | 47.60977 | 5.07502 | 30277 ft | 382 kts | 318° |
| 2026-04-22 09:06 | 47.63008 | 5.04902 | 29078 ft | 386 kts | 317° |
| 2026-04-22 09:07 | 47.65034 | 5.02277 | 27908 ft | 388 kts | 317° |
| 2026-04-22 09:07 | 47.67077 | 4.99650 | 26883 ft | 389 kts | 318° |
| 2026-04-22 09:07 | 47.69131 | 4.97038 | 25981 ft | 389 kts | 318° |
| 2026-04-22 09:07 | 47.71187 | 4.94442 | 25173 ft | 388 kts | 318° |
| 2026-04-22 09:08 | 47.73251 | 4.91838 | 24322 ft | 390 kts | 318° |
| 2026-04-22 09:08 | 47.75320 | 4.89229 | 23846 ft | 390 kts | 318° |
| 2026-04-22 09:08 | 47.77394 | 4.86612 | 23356 ft | 392 kts | 319° |
| 2026-04-22 09:08 | 47.79474 | 4.83987 | 22878 ft | 393 kts | 319° |
| 2026-04-22 09:09 | 47.81552 | 4.81360 | 22429 ft | 392 kts | 319° |
| 2026-04-22 09:09 | 47.83627 | 4.78736 | 22005 ft | 391 kts | 319° |
| 2026-04-22 09:09 | 47.85699 | 4.76110 | 21573 ft | 392 kts | 319° |
| 2026-04-22 09:09 | 47.87779 | 4.73470 | 21147 ft | 392 kts | 319° |
| 2026-04-22 09:10 | 47.89857 | 4.70831 | 20718 ft | 394 kts | 319° |
| 2026-04-22 09:10 | 47.91944 | 4.68178 | 20309 ft | 395 kts | 320° |
| 2026-04-22 09:10 | 47.94040 | 4.65510 | 19857 ft | 397 kts | 320° |
| 2026-04-22 09:10 | 47.96144 | 4.62829 | 19434 ft | 399 kts | 320° |
| 2026-04-22 09:11 | 47.98255 | 4.60136 | 19010 ft | 400 kts | 320° |
| 2026-04-22 09:11 | 48.00366 | 4.57440 | 18581 ft | 400 kts | 320° |
| 2026-04-22 09:11 | 48.02480 | 4.54736 | 18112 ft | 400 kts | 320° |
| 2026-04-22 09:11 | 48.04584 | 4.52042 | 17625 ft | 397 kts | 320° |
| 2026-04-22 09:12 | 48.06681 | 4.49355 | 17184 ft | 395 kts | 320° |
| 2026-04-22 09:12 | 48.08760 | 4.46689 | 16750 ft | 392 kts | 321° |
| 2026-04-22 09:12 | 48.10820 | 4.44043 | 16324 ft | 390 kts | 320° |
| 2026-04-22 09:12 | 48.12875 | 4.41405 | 15903 ft | 389 kts | 321° |
| 2026-04-22 09:13 | 48.15087 | 4.39088 | 15478 ft | 388 kts | 332° |
| 2026-04-22 09:13 | 48.17485 | 4.37198 | 15070 ft | 391 kts | 335° |
| 2026-04-22 09:13 | 48.19923 | 4.35362 | 14651 ft | 394 kts | 336° |
| 2026-04-22 09:13 | 48.22378 | 4.33495 | 14226 ft | 397 kts | 335° |
| 2026-04-22 09:14 | 48.24820 | 4.31597 | 13770 ft | 393 kts | 335° |
| 2026-04-22 09:14 | 48.27197 | 4.29714 | 13297 ft | 379 kts | 334° |
| 2026-04-22 09:14 | 48.29489 | 4.27881 | 12885 ft | 368 kts | 335° |
| 2026-04-22 09:14 | 48.31709 | 4.26101 | 12484 ft | 356 kts | 335° |
| 2026-04-22 09:15 | 48.33859 | 4.24374 | 12123 ft | 345 kts | 335° |
| 2026-04-22 09:15 | 48.35934 | 4.22687 | 11851 ft | 334 kts | 335° |
| 2026-04-22 09:15 | 48.37941 | 4.21038 | 11571 ft | 323 kts | 334° |
| 2026-04-22 09:15 | 48.39884 | 4.19442 | 11328 ft | 313 kts | 334° |
| 2026-04-22 09:16 | 48.41768 | 4.17892 | 11087 ft | 305 kts | 335° |
| 2026-04-22 09:16 | 48.43611 | 4.16376 | 10850 ft | 300 kts | 336° |
| 2026-04-22 09:16 | 48.45442 | 4.14872 | 10630 ft | 300 kts | 336° |
| 2026-04-22 09:16 | 48.47282 | 4.13363 | 10396 ft | 300 kts | 335° |
| 2026-04-22 09:17 | 48.49092 | 4.11870 | 10155 ft | 293 kts | 335° |
| 2026-04-22 09:17 | 48.50862 | 4.10410 | 9900 ft | 287 kts | 335° |
| 2026-04-22 09:17 | 48.52592 | 4.08979 | 9675 ft | 283 kts | 336° |
| 2026-04-22 09:17 | 48.54319 | 4.07555 | 9455 ft | 283 kts | 336° |
| 2026-04-22 09:18 | 48.56058 | 4.06120 | 9225 ft | 285 kts | 336° |
| 2026-04-22 09:18 | 48.57795 | 4.04684 | 8992 ft | 285 kts | 335° |
| 2026-04-22 09:18 | 48.59534 | 4.03244 | 8763 ft | 285 kts | 336° |
| 2026-04-22 09:18 | 48.61276 | 4.01798 | 8543 ft | 285 kts | 335° |
| 2026-04-22 09:19 | 48.63003 | 4.00365 | 8318 ft | 284 kts | 336° |
| 2026-04-22 09:19 | 48.64734 | 3.98926 | 8088 ft | 283 kts | 335° |
| 2026-04-22 09:19 | 48.66456 | 3.97494 | 7865 ft | 282 kts | 336° |
| 2026-04-22 09:19 | 48.68169 | 3.96069 | 7640 ft | 280 kts | 336° |
| 2026-04-22 09:20 | 48.69857 | 3.94661 | 7417 ft | 277 kts | 335° |
| 2026-04-22 09:20 | 48.71553 | 3.93250 | 7261 ft | 276 kts | 336° |
| 2026-04-22 09:20 | 48.73253 | 3.91836 | 7226 ft | 282 kts | 335° |
| 2026-04-22 09:20 | 48.74967 | 3.90406 | 7212 ft | 280 kts | 336° |
| 2026-04-22 09:21 | 48.76657 | 3.88995 | 7207 ft | 276 kts | 336° |
| 2026-04-22 09:21 | 48.78335 | 3.87594 | 7202 ft | 275 kts | 336° |
| 2026-04-22 09:21 | 48.80037 | 3.86268 | 7210 ft | 275 kts | 340° |
| 2026-04-22 09:21 | 48.81789 | 3.85100 | 7225 ft | 276 kts | 342° |
| 2026-04-22 09:22 | 48.83562 | 3.83960 | 7219 ft | 277 kts | 342° |
| 2026-04-22 09:22 | 48.85338 | 3.82816 | 7223 ft | 278 kts | 342° |
| 2026-04-22 09:22 | 48.87122 | 3.81653 | 7211 ft | 279 kts | 342° |
| 2026-04-22 09:22 | 48.88898 | 3.80496 | 7201 ft | 275 kts | 342° |
| 2026-04-22 09:23 | 48.90602 | 3.79377 | 7195 ft | 259 kts | 342° |
| 2026-04-22 09:23 | 48.92228 | 3.78303 | 6942 ft | 256 kts | 342° |
| 2026-04-22 09:23 | 48.93855 | 3.77235 | 6772 ft | 253 kts | 341° |
| 2026-04-22 09:23 | 48.95496 | 3.76157 | 6708 ft | 264 kts | 342° |
| 2026-04-22 09:24 | 48.97220 | 3.75026 | 6669 ft | 274 kts | 342° |
| 2026-04-22 09:24 | 48.98978 | 3.73864 | 6602 ft | 276 kts | 341° |
| 2026-04-22 09:24 | 49.00735 | 3.72697 | 6549 ft | 275 kts | 341° |
| 2026-04-22 09:24 | 49.02480 | 3.71536 | 6510 ft | 273 kts | 341° |
| 2026-04-22 09:25 | 49.04214 | 3.70384 | 6458 ft | 271 kts | 341° |
| 2026-04-22 09:25 | 49.05935 | 3.69243 | 6419 ft | 269 kts | 341° |
| 2026-04-22 09:25 | 49.07651 | 3.68102 | 6370 ft | 268 kts | 341° |
| 2026-04-22 09:25 | 49.09356 | 3.66968 | 6342 ft | 268 kts | 341° |
| 2026-04-22 09:26 | 49.11065 | 3.65831 | 6326 ft | 268 kts | 341° |
| 2026-04-22 09:26 | 49.12781 | 3.64689 | 6255 ft | 269 kts | 341° |
| 2026-04-22 09:26 | 49.14498 | 3.63546 | 6230 ft | 269 kts | 341° |
| 2026-04-22 09:26 | 49.16213 | 3.62402 | 6200 ft | 269 kts | 341° |
| 2026-04-22 09:27 | 49.17919 | 3.61265 | 6150 ft | 269 kts | 342° |
| 2026-04-22 09:27 | 49.19607 | 3.60136 | 6114 ft | 269 kts | 341° |
| 2026-04-22 09:27 | 49.21348 | 3.58973 | 6085 ft | 269 kts | 341° |
| 2026-04-22 09:27 | 49.23058 | 3.57829 | 6068 ft | 271 kts | 341° |
| 2026-04-22 09:28 | 49.24804 | 3.56662 | 6001 ft | 272 kts | 341° |
| 2026-04-22 09:28 | 49.26542 | 3.55497 | 5968 ft | 273 kts | 341° |
| 2026-04-22 09:28 | 49.28276 | 3.54335 | 5921 ft | 274 kts | 341° |
| 2026-04-22 09:28 | 49.30003 | 3.53178 | 5875 ft | 274 kts | 341° |
| 2026-04-22 09:29 | 49.31757 | 3.51999 | 5846 ft | 272 kts | 341° |
| 2026-04-22 09:29 | 49.33502 | 3.50826 | 5819 ft | 271 kts | 341° |
| 2026-04-22 09:29 | 49.35219 | 3.49671 | 5645 ft | 276 kts | 341° |
| 2026-04-22 09:29 | 49.36970 | 3.48492 | 5523 ft | 272 kts | 341° |
| 2026-04-22 09:30 | 49.38702 | 3.47325 | 5471 ft | 266 kts | 341° |
| 2026-04-22 09:30 | 49.40272 | 3.45818 | 5410 ft | 273 kts | 316° |
| 2026-04-22 09:30 | 49.41191 | 3.43277 | 5381 ft | 278 kts | 283° |
| 2026-04-22 09:30 | 49.41182 | 3.40338 | 5361 ft | 276 kts | 257° |
| 2026-04-22 09:31 | 49.40730 | 3.37517 | 5335 ft | 276 kts | 253° |
| 2026-04-22 09:31 | 49.40219 | 3.34668 | 5267 ft | 277 kts | 252° |
| 2026-04-22 09:31 | 49.39703 | 3.31816 | 5222 ft | 278 kts | 252° |
| 2026-04-22 09:31 | 49.39192 | 3.28956 | 5169 ft | 278 kts | 253° |
| 2026-04-22 09:32 | 49.38688 | 3.26093 | 5133 ft | 278 kts | 253° |
| 2026-04-22 09:32 | 49.38187 | 3.23229 | 5091 ft | 277 kts | 253° |
| 2026-04-22 09:32 | 49.37693 | 3.20376 | 5058 ft | 278 kts | 253° |
| 2026-04-22 09:32 | 49.37196 | 3.17509 | 5007 ft | 278 kts | 253° |
| 2026-04-22 09:33 | 49.36701 | 3.14650 | 4972 ft | 277 kts | 253° |
| 2026-04-22 09:33 | 49.36207 | 3.11807 | 4948 ft | 276 kts | 253° |
| 2026-04-22 09:33 | 49.35806 | 3.08912 | 4878 ft | 280 kts | 268° |
| 2026-04-22 09:33 | 49.36193 | 3.06022 | 4862 ft | 276 kts | 294° |
| 2026-04-22 09:34 | 49.37016 | 3.03370 | 4819 ft | 275 kts | 299° |
| 2026-04-22 09:34 | 49.37898 | 3.00793 | 4756 ft | 273 kts | 300° |
| 2026-04-22 09:34 | 49.38771 | 2.98199 | 4740 ft | 274 kts | 298° |
| 2026-04-22 09:35 | 49.40415 | 2.92903 | 4671 ft | 278 kts | 297° |
| 2026-04-22 09:35 | 49.41249 | 2.90190 | 4631 ft | 283 kts | 297° |
| 2026-04-22 09:35 | 49.42094 | 2.87451 | 4583 ft | 283 kts | 297° |
| 2026-04-22 09:35 | 49.42934 | 2.84719 | 4541 ft | 283 kts | 297° |
| 2026-04-22 09:36 | 49.43773 | 2.81982 | 4509 ft | 283 kts | 297° |
| 2026-04-22 09:36 | 49.44611 | 2.79239 | 4448 ft | 284 kts | 297° |
| 2026-04-22 09:36 | 49.45447 | 2.76493 | 4399 ft | 282 kts | 297° |
| 2026-04-22 09:36 | 49.46266 | 2.73783 | 4361 ft | 277 kts | 297° |
| 2026-04-22 09:37 | 49.47077 | 2.71107 | 4319 ft | 276 kts | 297° |
| 2026-04-22 09:37 | 49.47890 | 2.68435 | 4289 ft | 276 kts | 297° |
| 2026-04-22 09:37 | 49.48702 | 2.65761 | 4261 ft | 278 kts | 297° |
| 2026-04-22 09:37 | 49.49513 | 2.63099 | 4206 ft | 278 kts | 297° |
| 2026-04-22 09:38 | 49.50336 | 2.60410 | 4185 ft | 278 kts | 297° |
| 2026-04-22 09:38 | 49.51159 | 2.57710 | 4144 ft | 280 kts | 297° |
| 2026-04-22 09:38 | 49.51980 | 2.55006 | 4101 ft | 281 kts | 297° |
| 2026-04-22 09:38 | 49.52750 | 2.52462 | 4074 ft | 281 kts | 297° |
| 2026-04-22 09:39 | 49.53280 | 2.50716 | 4052 ft | 280 kts | 297° |
| 2026-04-22 09:39 | 49.54106 | 2.47993 | 4013 ft | 281 kts | 297° |
| 2026-04-22 09:39 | 49.54931 | 2.45269 | 3964 ft | 280 kts | 297° |
| 2026-04-22 09:39 | 49.55746 | 2.42586 | 3920 ft | 277 kts | 297° |
| 2026-04-22 09:40 | 49.56558 | 2.39899 | 3887 ft | 276 kts | 297° |
| 2026-04-22 09:40 | 49.57367 | 2.37202 | 3847 ft | 278 kts | 297° |
| 2026-04-22 09:40 | 49.58179 | 2.34499 | 3805 ft | 279 kts | 296° |
| 2026-04-22 09:40 | 49.58998 | 2.31787 | 3763 ft | 279 kts | 296° |
| 2026-04-22 09:41 | 49.59820 | 2.29082 | 3716 ft | 278 kts | 297° |
| 2026-04-22 09:41 | 49.60633 | 2.26399 | 3675 ft | 276 kts | 297° |
| 2026-04-22 09:41 | 49.61440 | 2.23721 | 3656 ft | 276 kts | 296° |
| 2026-04-22 09:41 | 49.62253 | 2.21027 | 3624 ft | 278 kts | 297° |
| 2026-04-22 09:42 | 49.63072 | 2.18316 | 3607 ft | 280 kts | 297° |
| 2026-04-22 09:42 | 49.63894 | 2.15591 | 3550 ft | 279 kts | 297° |
| 2026-04-22 09:42 | 49.64705 | 2.12884 | 3507 ft | 277 kts | 297° |
| 2026-04-22 09:42 | 49.65511 | 2.10180 | 3473 ft | 278 kts | 296° |
| 2026-04-22 09:43 | 49.66318 | 2.07467 | 3461 ft | 279 kts | 297° |
| 2026-04-22 09:43 | 49.67129 | 2.04755 | 3405 ft | 278 kts | 297° |
| 2026-04-22 09:43 | 49.67936 | 2.02045 | 3395 ft | 278 kts | 296° |
| 2026-04-22 09:43 | 49.68738 | 1.99340 | 3371 ft | 277 kts | 296° |
| 2026-04-22 09:44 | 49.69550 | 1.96622 | 3369 ft | 280 kts | 296° |
| 2026-04-22 09:44 | 49.70370 | 1.93894 | 3342 ft | 280 kts | 296° |
| 2026-04-22 09:44 | 49.71018 | 1.91066 | 3264 ft | 280 kts | 274° |
| 2026-04-22 09:44 | 49.70670 | 1.88205 | 3268 ft | 269 kts | 236° |
| 2026-04-22 09:45 | 49.69405 | 1.86243 | 3292 ft | 256 kts | 203° |
| 2026-04-22 09:45 | 49.67770 | 1.85224 | 3273 ft | 252 kts | 186° |
| 2026-04-22 09:45 | 49.66063 | 1.85000 | 3233 ft | 241 kts | 166° |
| 2026-04-22 09:45 | 49.64452 | 1.85502 | 3222 ft | 233 kts | 160° |
| 2026-04-22 09:46 | 49.62921 | 1.86061 | 3198 ft | 220 kts | 159° |
| 2026-04-22 09:46 | 49.61458 | 1.86600 | 3098 ft | 212 kts | 159° |
| 2026-04-22 09:46 | 49.60054 | 1.87110 | 2998 ft | 202 kts | 159° |
| 2026-04-22 09:46 | 49.58743 | 1.87580 | 2999 ft | 184 kts | 158° |
| 2026-04-22 09:47 | 49.57543 | 1.88011 | 2972 ft | 173 kts | 158° |
| 2026-04-22 09:47 | 49.56388 | 1.88424 | 3001 ft | 168 kts | 158° |
| 2026-04-22 09:47 | 49.55320 | 1.88960 | 2983 ft | 154 kts | 137° |
| 2026-04-22 09:47 | 49.54706 | 1.90207 | 3005 ft | 147 kts | 121° |
| 2026-04-22 09:48 | 49.54139 | 1.91378 | 2996 ft | 140 kts | 122° |
| 2026-04-22 09:48 | 49.53571 | 1.92601 | 2988 ft | 135 kts | 120° |
| 2026-04-22 09:48 | 49.53065 | 1.93821 | 2875 ft | 136 kts | 116° |
| 2026-04-22 09:48 | 49.52553 | 1.95018 | 2594 ft | 133 kts | 122° |
| 2026-04-22 09:49 | 49.51996 | 1.96117 | 2388 ft | 126 kts | 123° |
| 2026-04-22 09:49 | 49.51485 | 1.97138 | 2354 ft | 117 kts | 120° |
| 2026-04-22 09:49 | 49.51041 | 1.98184 | 2375 ft | 117 kts | 117° |
| 2026-04-22 09:49 | 49.50579 | 1.99217 | 2247 ft | 118 kts | 117° |
| 2026-04-22 09:50 | 49.50151 | 2.00258 | 1934 ft | 114 kts | 116° |
| 2026-04-22 09:50 | 49.49723 | 2.01289 | 1685 ft | 114 kts | 114° |
| 2026-04-22 09:50 | 49.49293 | 2.02326 | 1508 ft | 115 kts | 116° |
| 2026-04-22 09:50 | 49.48855 | 2.03349 | 1412 ft | 116 kts | 115° |
| 2026-04-22 09:51 | 49.48404 | 2.04398 | 1378 ft | 122 kts | 116° |
| 2026-04-22 09:51 | 49.47913 | 2.05519 | 1231 ft | 131 kts | 116° |
| 2026-04-22 09:51 | 49.47441 | 2.06713 | 969 ft | 129 kts | 117° |
| 2026-04-22 09:51 | 49.46940 | 2.07823 | 757 ft | 125 kts | 117° |
| 2026-04-22 09:52 | 49.46482 | 2.08873 | 553 ft | 114 kts | 116° |
| 2026-04-22 09:52 | 49.46055 | 2.09873 | 409 ft | 109 kts | 117° |
| 2026-04-22 09:52 | 49.45647 | 2.10810 | 334 ft | 89 kts | 123° |
| 2026-04-22 09:52 | 49.45422 | 2.11321 | 336 ft | 28 kts | 124° |
| 2026-04-22 09:53 | 49.45348 | 2.11490 | 338 ft | 20 kts | 123° |
| 2026-04-22 09:53 | 49.45265 | 2.11660 | 339 ft | 19 kts | 121° |
| 2026-04-22 09:53 | 49.45200 | 2.11831 | 352 ft | 18 kts | 122° |
| 2026-04-22 09:53 | 49.45130 | 2.11990 | 348 ft | 18 kts | 124° |
| 2026-04-22 09:54 | 49.45064 | 2.12145 | 348 ft | 17 kts | 123° |
| 2026-04-22 09:54 | 49.45035 | 2.12304 | 344 ft | 15 kts | 94° |
| 2026-04-22 09:54 | 49.45029 | 2.12463 | 344 ft | 15 kts | 93° |
| 2026-04-22 09:54 | 49.45023 | 2.12617 | 350 ft | 14 kts | 93° |
| 2026-04-22 09:55 | 49.44997 | 2.12759 | 348 ft | 14 kts | 122° |
| 2026-04-22 09:55 | 49.44946 | 2.12876 | 354 ft | 13 kts | 123° |
| 2026-04-22 09:55 | 49.44897 | 2.12990 | 351 ft | 13 kts | 123° |
| 2026-04-22 09:55 | 49.44848 | 2.13100 | 357 ft | 12 kts | 125° |
| 2026-04-22 09:56 | 49.44801 | 2.13206 | 352 ft | 12 kts | 124° |
| 2026-04-22 09:56 | 49.44744 | 2.13290 | 350 ft | 12 kts | 166° |
| 2026-04-22 09:56 | 49.44671 | 2.13254 | 352 ft | 11 kts | 220° |
| 2026-04-22 09:56 | 49.44645 | 2.13168 | 352 ft | 8 kts | 252° |
| 2026-04-22 09:57 | 49.44655 | 2.13084 | 350 ft | 9 kts | 302° |
| 2026-04-22 09:57 | 49.44695 | 2.12990 | 351 ft | 13 kts | 304° |
| 2026-04-22 09:57 | 49.44755 | 2.12854 | 347 ft | 18 kts | 304° |
| 2026-04-22 09:57 | 49.44832 | 2.12678 | 350 ft | 22 kts | 303° |
| 2026-04-22 09:58 | 49.44925 | 2.12465 | 349 ft | 25 kts | 304° |
| 2026-04-22 09:58 | 49.45020 | 2.12247 | 351 ft | 24 kts | 303° |
| 2026-04-22 09:58 | 49.45107 | 2.12043 | 346 ft | 23 kts | 303° |
| 2026-04-22 09:58 | 49.45194 | 2.11846 | 343 ft | 22 kts | 304° |
| 2026-04-22 09:59 | 49.45277 | 2.11653 | 340 ft | 21 kts | 303° |
| 2026-04-22 09:59 | 49.45359 | 2.11467 | 334 ft | 21 kts | 304° |
| 2026-04-22 09:59 | 49.45437 | 2.11287 | 336 ft | 14 kts | 304° |
| 2026-04-22 09:59 | 49.45440 | 2.11280 | 339 ft | 1 kts | 310° |
| 2026-04-22 10:00 | 49.45458 | 2.11287 | 339 ft | 6 kts | 33° |
| 2026-04-22 10:00 | 49.45500 | 2.11348 | 338 ft | 10 kts | 43° |
| 2026-04-22 10:00 | 49.45557 | 2.11425 | 337 ft | 11 kts | 40° |
| 2026-04-22 10:00 | 49.45615 | 2.11502 | 331 ft | 11 kts | 41° |
| 2026-04-22 10:01 | 49.45672 | 2.11580 | 334 ft | 11 kts | 41° |
| 2026-04-22 10:01 | 49.45737 | 2.11591 | 334 ft | 10 kts | 321° |
| 2026-04-22 10:01 | 49.45786 | 2.11510 | 330 ft | 10 kts | 310° |
| 2026-04-22 10:01 | 49.45788 | 2.11414 | 334 ft | 10 kts | 230° |
| 2026-04-22 10:02 | 49.45738 | 2.11344 | 332 ft | 10 kts | 220° |
| 2026-04-22 10:02 | 49.45696 | 2.11269 | 335 ft | 9 kts | 259° |
| 2026-04-22 10:02 | 49.45723 | 2.11181 | 336 ft | 9 kts | 303° |
| 2026-04-22 10:02 | 49.45758 | 2.11101 | 333 ft | 9 kts | 304° |
| 2026-04-22 10:03 | 49.45784 | 2.11041 | 335 ft | 4 kts | 301° |
| 2026-04-22 10:03 | 49.45802 | 2.11008 | 332 ft | 4 kts | 326° |
| 2026-04-22 10:03 | 49.45828 | 2.11008 | 331 ft | 2 kts | 27° |
| 2026-04-22 10:03 | 49.45834 | 2.11018 | 335 ft | 1 kts | 48° |
| 2026-04-22 10:04 | 49.45840 | 2.11032 | 331 ft | 2 kts | 56° |
| 2026-04-22 10:04 | 49.45846 | 2.11046 | 335 ft | 1 kts | 59° |
| 2026-04-22 10:04 | 49.45849 | 2.11054 | 335 ft | 0 kts | 59° |
| 2026-04-22 10:04 | 49.45850 | 2.11057 | 335 ft | 0 kts | 59° |